Terminal Aerodrome Forecast
Issued by NWS Louisville, KY

Home | Current Version | Previous Version | Text Only | Print | Product List | Glossary On
Versions: 1 2 3 4 5 6 7 8 9 10 11 12 13 14 15
000
FTUS43 KLMK 271600 AAB
TAFSDF
TAF AMD
KSDF 271642Z 2717/2818 17009KT P6SM SCT015 BKN022
     FM271900 25013G20KT P6SM SCT025 BKN035
     FM280000 33010KT P6SM SCT040=

USA.gov is the U.S. government's official web portal to all federal, state and local government web resources and services.